Lanham Seabrook, Maryland
Current Conditions -  °F | °C
As of 4:00 PM on Monday 22 Dec 2014 (Local Time) from KCGS Reporting Station
Overcast Overcast  
Wind Chill: 31°   Ceiling: 2000
Heat Index: 36°   Visibility: 2mi
Dew Point: 34°   Wind: 6mph
Humidity: 93%   Direction: 360°N
Pressure: 30.16"   Gusts: NA
Location:  38.9695°N, 76.8472°W
Report Text: KCGS 222100Z AUTO 36005KT 2SM SCT008 BKN020 OVC027 02/01 A3016 RMK AO1
Loading
Personal Weather Stations






























Interactive Weather Map New forecast layout! Learn more

10-Day Weather Forecast

Advertisements
Track Severe Weather on mobile